createdAt,value
2022-10-18T00:02:23.078Z,100.00
2022-10-18T00:05:29.045Z,100.00
2022-10-18T00:08:34.607Z,100.00
2022-10-18T00:11:40.705Z,100.00
2022-10-18T00:14:51.162Z,100.00
2022-10-18T00:17:56.519Z,100.00
2022-10-18T00:21:07.863Z,100.00
2022-10-18T00:24:13.227Z,100.00
2022-10-18T00:27:18.587Z,100.00
2022-10-18T00:30:26.136Z,100.00
2022-10-18T00:33:31.858Z,100.00
2022-10-18T00:36:37.558Z,100.00
2022-10-18T00:39:44.104Z,100.00
2022-10-18T00:42:49.676Z,100.00
2022-10-18T00:45:55.152Z,100.00
2022-10-18T00:49:03.995Z,100.00
2022-10-18T00:52:15.820Z,100.00
2022-10-18T00:55:21.923Z,100.00
2022-10-18T00:58:27.490Z,100.00
2022-10-18T01:01:32.783Z,100.00
2022-10-18T01:04:38.150Z,100.00
2022-10-18T01:07:55.290Z,100.00
2022-10-18T01:11:18.520Z,100.00
2022-10-18T01:14:50.019Z,100.00
2022-10-18T01:18:32.312Z,100.00
2022-10-18T01:22:02.841Z,100.00
2022-10-18T01:25:32.843Z,100.00
2022-10-18T01:29:25.981Z,100.00
2022-10-18T01:32:37.919Z,100.00
2022-10-18T01:36:22.970Z,100.00
2022-10-18T01:39:35.905Z,100.00
2022-10-18T01:42:59.911Z,100.00
2022-10-18T01:46:06.021Z,100.00
2022-10-18T01:49:29.272Z,100.00
2022-10-18T01:52:34.655Z,100.00
2022-10-18T01:56:11.026Z,100.00
2022-10-18T01:59:54.526Z,100.00
2022-10-18T02:03:18.129Z,100.00
2022-10-18T02:06:32.448Z,100.00
2022-10-18T02:09:46.932Z,100.00
2022-10-18T02:12:55.370Z,100.00
2022-10-18T02:16:08.423Z,100.00
2022-10-18T02:19:20.883Z,100.00
2022-10-18T02:22:31.504Z,100.00
2022-10-18T02:25:38.687Z,100.00
2022-10-18T02:28:45.948Z,100.00
2022-10-18T02:32:02.759Z,100.00
2022-10-18T02:35:24.958Z,100.00
2022-10-18T02:38:32.903Z,100.00
2022-10-18T02:41:38.976Z,100.00
2022-10-18T02:44:44.293Z,100.00
2022-10-18T02:47:50.125Z,100.00
2022-10-18T02:50:55.562Z,100.00
2022-10-18T02:54:01.190Z,100.00
2022-10-18T02:57:07.073Z,100.00
2022-10-18T03:00:13.018Z,100.00
2022-10-18T03:03:18.680Z,100.00
2022-10-18T03:06:24.019Z,100.00
2022-10-18T03:09:29.201Z,100.00
2022-10-18T03:12:34.777Z,100.00
2022-10-18T03:15:40.600Z,100.00
2022-10-18T03:18:46.213Z,100.00
2022-10-18T03:21:51.715Z,100.00
2022-10-18T03:24:56.835Z,100.00
2022-10-18T03:28:02.141Z,100.00
2022-10-18T03:31:07.920Z,100.00
2022-10-18T03:34:13.336Z,100.00
2022-10-18T03:37:18.802Z,100.00
2022-10-18T03:40:24.594Z,100.00
2022-10-18T03:43:30.473Z,100.00
2022-10-18T03:46:35.560Z,100.00
2022-10-18T03:49:40.713Z,100.00
2022-10-18T03:52:46.187Z,100.00
2022-10-18T03:55:55.887Z,100.00
2022-10-18T03:59:01.335Z,100.00
2022-10-18T04:02:07.109Z,100.00
2022-10-18T04:05:14.361Z,100.00
2022-10-18T04:08:20.409Z,100.00
2022-10-18T04:11:25.828Z,100.00
2022-10-18T04:14:31.394Z,100.00
2022-10-18T04:17:37.354Z,100.00
2022-10-18T04:20:42.702Z,100.00
2022-10-18T04:23:49.728Z,100.00
2022-10-18T04:26:55.033Z,100.00
2022-10-18T04:30:00.434Z,100.00
2022-10-18T04:33:06.028Z,100.00
2022-10-18T04:36:11.605Z,100.00
2022-10-18T04:39:18.182Z,100.00
2022-10-18T04:42:23.849Z,100.00
2022-10-18T04:45:29.322Z,100.00
2022-10-18T04:48:34.975Z,100.00
2022-10-18T04:51:40.847Z,100.00
2022-10-18T04:54:46.297Z,100.00
2022-10-18T04:57:53.594Z,100.00
2022-10-18T05:00:59.142Z,100.00
2022-10-18T05:04:05.273Z,100.00
2022-10-18T05:07:11.183Z,100.00
2022-10-18T05:10:16.848Z,100.00
2022-10-18T05:13:22.494Z,100.00
2022-10-18T05:16:28.947Z,100.00
2022-10-18T05:19:34.395Z,100.00
2022-10-18T05:22:39.780Z,100.00
2022-10-18T05:25:44.801Z,100.00
2022-10-18T05:28:50.981Z,100.00
2022-10-18T05:31:57.251Z,100.00
2022-10-18T05:35:03.066Z,100.00
2022-10-18T05:38:08.793Z,100.00
2022-10-18T05:41:14.886Z,100.00
2022-10-18T05:44:20.444Z,100.00
2022-10-18T05:47:25.933Z,100.00
2022-10-18T05:50:35.425Z,100.00
2022-10-18T05:53:43.460Z,100.00
2022-10-18T05:56:48.702Z,100.00
2022-10-18T05:59:54.028Z,100.00
2022-10-18T06:03:00.516Z,100.00
2022-10-18T06:06:11.154Z,100.00
2022-10-18T06:09:16.130Z,100.00
2022-10-18T06:12:21.385Z,100.00
2022-10-18T06:15:26.747Z,100.00
2022-10-18T06:18:32.276Z,100.00
2022-10-18T06:21:37.905Z,100.00
2022-10-18T06:24:43.205Z,100.00
2022-10-18T06:27:48.906Z,100.00
2022-10-18T06:30:54.721Z,100.00
2022-10-18T06:34:00.276Z,100.00
2022-10-18T06:37:05.772Z,100.00
2022-10-18T06:40:11.774Z,100.00
2022-10-18T06:43:20.955Z,100.00
2022-10-18T06:46:27.486Z,100.00
2022-10-18T06:49:33.352Z,100.00
2022-10-18T06:52:39.047Z,100.00
2022-10-18T06:55:44.611Z,100.00
2022-10-18T06:58:50.392Z,100.00
2022-10-18T07:01:56.374Z,100.00
2022-10-18T07:05:01.414Z,100.00
2022-10-18T07:08:07.202Z,100.00
2022-10-18T07:11:20.552Z,100.00
2022-10-18T07:14:29.059Z,100.00
2022-10-18T07:17:35.454Z,100.00
2022-10-18T07:20:41.213Z,100.00
2022-10-18T07:23:47.373Z,100.00
2022-10-18T07:26:52.724Z,100.00
2022-10-18T07:29:58.624Z,100.00
2022-10-18T07:33:04.010Z,100.00
2022-10-18T07:36:11.092Z,100.00
2022-10-18T07:39:16.929Z,100.00
2022-10-18T07:42:22.313Z,100.00
2022-10-18T07:45:27.894Z,100.00
2022-10-18T07:48:33.319Z,100.00
2022-10-18T07:51:39.387Z,100.00
2022-10-18T07:54:44.803Z,100.00
2022-10-18T07:57:50.277Z,100.00
2022-10-18T08:00:55.959Z,100.00
2022-10-18T08:04:06.301Z,100.00
2022-10-18T08:07:12.990Z,100.00
2022-10-18T08:10:18.877Z,100.00
2022-10-18T08:13:24.909Z,100.00
2022-10-18T08:19:41.935Z,100.00
2022-10-18T08:22:55.465Z,100.00
2022-10-18T08:26:11.128Z,100.00
2022-10-18T08:29:23.885Z,100.00
2022-10-18T08:32:31.715Z,100.00
2022-10-18T08:35:38.049Z,100.00
2022-10-18T08:38:44.251Z,100.00
2022-10-18T08:41:55.313Z,100.00
2022-10-18T08:45:08.244Z,100.00
2022-10-18T08:48:33.251Z,100.00
2022-10-18T08:51:49.917Z,100.00
2022-10-18T08:55:22.324Z,100.00
2022-10-18T08:58:32.136Z,100.00
2022-10-18T09:02:02.216Z,100.00
2022-10-18T09:05:31.709Z,100.00
2022-10-18T09:09:15.664Z,100.00
2022-10-18T09:12:27.180Z,100.00
2022-10-18T09:16:13.967Z,100.00
2022-10-18T09:19:43.909Z,100.00
2022-10-18T09:23:13.512Z,100.00
2022-10-18T09:26:21.883Z,100.00
2022-10-18T09:29:38.298Z,100.00
2022-10-18T09:33:02.247Z,100.00
2022-10-18T09:36:17.950Z,100.00
2022-10-18T09:39:38.120Z,100.00
2022-10-18T09:43:02.144Z,100.00
2022-10-18T09:46:09.078Z,100.00
2022-10-18T09:49:20.496Z,100.00
2022-10-18T09:52:45.686Z,100.00
2022-10-18T09:55:57.873Z,100.00
2022-10-18T09:59:04.462Z,100.00
2022-10-18T10:02:16.229Z,99.61
2022-10-18T10:05:21.653Z,97.07
2022-10-18T10:08:36.511Z,94.25
2022-10-18T10:11:52.593Z,91.28
2022-10-18T10:15:23.507Z,90.08
2022-10-18T10:18:36.347Z,91.73
2022-10-18T10:21:41.732Z,89.55
2022-10-18T10:24:51.962Z,89.43
2022-10-18T10:28:16.979Z,90.45
2022-10-18T10:31:25.745Z,90.34
2022-10-18T10:34:32.260Z,89.06
2022-10-18T10:37:38.397Z,90.87
2022-10-18T10:40:53.898Z,90.19
2022-10-18T10:44:04.156Z,89.00
2022-10-18T10:47:09.610Z,89.21
2022-10-18T10:50:27.380Z,89.23
2022-10-18T10:53:39.118Z,89.14
2022-10-18T10:57:05.324Z,90.85
2022-10-18T11:00:36.765Z,89.05
2022-10-18T11:03:51.167Z,90.21
2022-10-18T11:07:02.678Z,90.63
2022-10-18T11:10:15.870Z,91.21
2022-10-18T11:13:50.012Z,91.18
2022-10-18T11:17:30.281Z,91.02
2022-10-18T11:20:40.699Z,90.65
2022-10-18T11:23:46.433Z,90.47
2022-10-18T11:27:16.971Z,89.00
2022-10-18T11:30:43.100Z,88.44
2022-10-18T11:34:08.133Z,88.04
2022-10-18T11:37:37.545Z,87.99
2022-10-18T11:41:22.962Z,88.45
2022-10-18T11:44:37.497Z,88.57
2022-10-18T11:47:57.356Z,86.88
2022-10-18T11:51:55.949Z,88.23
2022-10-18T11:55:15.541Z,86.65
2022-10-18T11:58:45.085Z,87.92
2022-10-18T12:01:59.249Z,87.53
2022-10-18T12:05:24.294Z,86.04
2022-10-18T12:08:40.534Z,86.29
2022-10-18T12:12:14.591Z,86.37
2022-10-18T12:15:28.905Z,85.50
2022-10-18T12:18:39.798Z,84.64
2022-10-18T12:21:46.157Z,84.59
2022-10-18T12:24:52.126Z,84.29
2022-10-18T12:28:16.733Z,83.96
2022-10-18T12:31:34.352Z,81.50
2022-10-18T12:34:52.025Z,82.64
2022-10-18T12:38:18.222Z,82.61
2022-10-18T12:41:28.695Z,83.93
2022-10-18T12:44:36.398Z,84.30
2022-10-18T12:47:42.021Z,82.57
2022-10-18T12:51:13.836Z,82.68
2022-10-18T12:54:25.703Z,82.45
2022-10-18T12:57:52.971Z,82.69
2022-10-18T13:01:04.443Z,81.82
2022-10-18T13:04:33.913Z,81.58
2022-10-18T13:07:43.439Z,81.92
2022-10-18T13:11:12.474Z,81.49
2022-10-18T13:14:20.800Z,81.85
2022-10-18T13:18:25.332Z,79.45
2022-10-18T13:21:49.087Z,80.45
2022-10-18T13:25:25.647Z,81.22
2022-10-18T13:28:59.430Z,80.35
2022-10-18T13:32:34.538Z,79.21
2022-10-18T13:36:04.483Z,80.59
2022-10-18T13:39:37.087Z,77.66
2022-10-18T13:42:42.866Z,77.93
2022-10-18T13:46:13.496Z,78.60
2022-10-18T13:49:59.212Z,78.80
2022-10-18T13:53:53.626Z,79.45
2022-10-18T13:57:26.825Z,78.60
2022-10-18T14:01:11.485Z,78.63
2022-10-18T14:04:31.900Z,77.94
2022-10-18T14:08:00.758Z,79.41
2022-10-18T14:11:17.487Z,78.68
2022-10-18T14:14:46.425Z,78.28
2022-10-18T14:17:53.409Z,76.88
2022-10-18T14:21:21.935Z,76.89
2022-10-18T14:24:30.145Z,77.99
2022-10-18T14:28:11.409Z,77.39
2022-10-18T14:31:20.860Z,79.04
2022-10-18T14:34:44.858Z,78.56
2022-10-18T14:37:53.754Z,78.11
2022-10-18T14:41:46.730Z,79.05
2022-10-18T14:44:54.318Z,78.59
2022-10-18T14:48:24.079Z,77.64
2022-10-18T14:51:34.423Z,79.37
2022-10-18T14:54:59.059Z,77.73
2022-10-18T14:58:15.439Z,78.14
2022-10-18T15:01:39.670Z,78.89
2022-10-18T15:04:47.114Z,78.68
2022-10-18T15:08:10.564Z,77.90
2022-10-18T15:11:35.394Z,80.13
2022-10-18T15:14:43.155Z,79.92
2022-10-18T15:18:07.529Z,78.88
2022-10-18T15:21:24.426Z,80.60
2022-10-18T15:24:55.915Z,80.99
2022-10-18T15:28:02.320Z,81.68
2022-10-18T15:31:35.790Z,81.37
2022-10-18T15:34:41.412Z,82.50
2022-10-18T15:38:08.504Z,82.09
2022-10-18T15:41:49.308Z,81.90
2022-10-18T15:45:13.511Z,83.48
2022-10-18T15:48:30.870Z,83.83
2022-10-18T15:52:07.321Z,84.55
2022-10-18T15:55:30.889Z,84.91
2022-10-18T15:59:05.230Z,85.13
2022-10-18T16:02:14.550Z,85.45
2022-10-18T16:05:41.120Z,86.78
2022-10-18T16:08:52.578Z,87.32
2022-10-18T16:11:59.061Z,88.86
2022-10-18T16:15:05.002Z,91.15
2022-10-18T16:18:20.921Z,91.50
2022-10-18T16:21:35.385Z,93.17
2022-10-18T16:24:41.154Z,93.72
2022-10-18T16:27:46.378Z,95.05
2022-10-18T16:30:58.548Z,95.15
2022-10-18T16:34:05.401Z,96.60
2022-10-18T16:37:11.834Z,97.51
2022-10-18T16:40:26.474Z,97.77
2022-10-18T16:43:35.050Z,98.92
2022-10-18T16:46:41.480Z,98.81
2022-10-18T16:49:47.453Z,98.35
2022-10-18T16:52:52.912Z,98.82
2022-10-18T16:56:00.948Z,99.36
2022-10-18T16:59:07.002Z,99.16
2022-10-18T17:02:12.459Z,99.59
2022-10-18T17:05:19.308Z,100.00
2022-10-18T17:08:27.749Z,99.82
2022-10-18T17:11:33.341Z,100.00
2022-10-18T17:14:38.802Z,100.00
2022-10-18T17:17:44.416Z,100.00
2022-10-18T17:20:51.017Z,100.00
2022-10-18T17:24:06.413Z,100.00
2022-10-18T17:27:12.351Z,100.00
2022-10-18T17:30:18.302Z,100.00
2022-10-18T17:33:23.885Z,100.00
2022-10-18T17:36:32.924Z,100.00
2022-10-18T17:39:38.590Z,100.00
2022-10-18T17:42:44.026Z,100.00
2022-10-18T17:45:56.834Z,100.00
2022-10-18T17:49:02.910Z,100.00
2022-10-18T17:52:09.057Z,100.00
2022-10-18T17:55:16.283Z,100.00
2022-10-18T17:58:21.776Z,100.00
2022-10-18T18:01:27.514Z,100.00
2022-10-18T18:04:32.758Z,100.00
2022-10-18T18:07:38.378Z,100.00
2022-10-18T18:10:44.756Z,100.00
2022-10-18T18:13:50.613Z,100.00
2022-10-18T18:16:56.749Z,100.00
2022-10-18T18:20:02.846Z,100.00
2022-10-18T18:23:08.607Z,100.00
2022-10-18T18:26:15.741Z,100.00
2022-10-18T18:29:23.554Z,100.00
2022-10-18T18:32:28.815Z,100.00
2022-10-18T18:35:34.419Z,100.00
2022-10-18T18:38:42.951Z,100.00
2022-10-18T18:41:50.691Z,100.00
2022-10-18T18:44:55.908Z,100.00
2022-10-18T18:48:01.513Z,100.00
2022-10-18T18:51:11.844Z,100.00
2022-10-18T18:54:17.549Z,100.00
2022-10-18T18:57:22.845Z,100.00
2022-10-18T19:00:28.908Z,100.00
2022-10-18T19:03:34.754Z,100.00
2022-10-18T19:06:43.190Z,100.00
2022-10-18T19:09:51.095Z,100.00
2022-10-18T19:12:56.801Z,100.00
2022-10-18T19:16:25.632Z,100.00
2022-10-18T19:19:32.413Z,100.00
2022-10-18T19:22:38.979Z,100.00
2022-10-18T19:25:45.911Z,100.00
2022-10-18T19:28:51.757Z,100.00
2022-10-18T19:32:01.245Z,100.00
2022-10-18T19:35:08.077Z,100.00
2022-10-18T19:38:14.681Z,100.00
2022-10-18T19:41:21.603Z,100.00
2022-10-18T19:44:31.461Z,100.00
2022-10-18T19:47:39.678Z,100.00
2022-10-18T19:50:46.117Z,100.00
2022-10-18T19:53:55.483Z,100.00
2022-10-18T19:57:02.847Z,100.00
2022-10-18T20:00:11.338Z,100.00
2022-10-18T20:03:18.235Z,100.00
2022-10-18T20:06:26.084Z,100.00
2022-10-18T20:09:33.494Z,100.00
2022-10-18T20:12:40.116Z,100.00
2022-10-18T20:15:51.160Z,100.00
2022-10-18T20:18:59.714Z,100.00
2022-10-18T20:22:09.407Z,100.00
2022-10-18T20:25:16.222Z,100.00
2022-10-18T20:28:24.024Z,100.00
2022-10-18T20:31:39.417Z,100.00
2022-10-18T20:34:46.070Z,100.00
2022-10-18T20:37:52.396Z,100.00
2022-10-18T20:41:31.784Z,100.00
2022-10-18T20:44:41.256Z,100.00
2022-10-18T20:47:47.312Z,100.00
2022-10-18T20:50:53.116Z,100.00
2022-10-18T20:54:00.114Z,100.00
2022-10-18T20:57:06.233Z,100.00
2022-10-18T21:00:13.514Z,100.00
2022-10-18T21:03:19.165Z,100.00
2022-10-18T21:06:30.596Z,100.00
2022-10-18T21:09:35.695Z,100.00
2022-10-18T21:12:41.515Z,100.00
2022-10-18T21:15:54.608Z,100.00
2022-10-18T21:19:08.965Z,100.00
2022-10-18T21:22:14.321Z,100.00
2022-10-18T21:25:20.101Z,100.00
2022-10-18T21:28:25.323Z,100.00
2022-10-18T21:31:36.539Z,100.00
2022-10-18T21:34:41.965Z,100.00
2022-10-18T21:37:47.523Z,100.00
2022-10-18T21:40:53.853Z,100.00
2022-10-18T21:43:59.852Z,100.00
2022-10-18T21:47:05.368Z,100.00
2022-10-18T21:50:11.020Z,100.00
2022-10-18T21:53:16.978Z,100.00
2022-10-18T21:56:33.447Z,100.00
2022-10-18T21:59:39.463Z,100.00
2022-10-18T22:02:44.836Z,100.00
2022-10-18T22:06:07.860Z,100.00
2022-10-18T22:09:13.506Z,100.00
2022-10-18T22:12:19.130Z,100.00
2022-10-18T22:15:24.499Z,100.00
2022-10-18T22:18:30.675Z,100.00
2022-10-18T22:21:36.115Z,100.00
2022-10-18T22:24:41.886Z,100.00
2022-10-18T22:27:47.612Z,100.00
2022-10-18T22:30:53.309Z,100.00
2022-10-18T22:34:03.537Z,100.00
2022-10-18T22:37:08.950Z,100.00
2022-10-18T22:40:14.481Z,100.00
2022-10-18T22:43:20.319Z,100.00
2022-10-18T22:46:26.528Z,100.00
2022-10-18T22:49:32.366Z,100.00
2022-10-18T22:52:37.708Z,100.00
2022-10-18T22:55:43.343Z,100.00
2022-10-18T22:58:49.380Z,100.00
2022-10-18T23:01:55.134Z,100.00
2022-10-18T23:05:00.645Z,100.00
2022-10-18T23:08:08.479Z,100.00
2022-10-18T23:11:14.593Z,100.00
2022-10-18T23:14:20.842Z,100.00
2022-10-18T23:17:26.380Z,100.00
2022-10-18T23:20:32.254Z,100.00
2022-10-18T23:23:39.974Z,100.00
2022-10-18T23:26:45.179Z,100.00
2022-10-18T23:29:50.672Z,100.00
2022-10-18T23:32:56.698Z,100.00
2022-10-18T23:36:02.258Z,100.00
2022-10-18T23:39:07.905Z,100.00
2022-10-18T23:42:13.683Z,100.00
2022-10-18T23:45:19.478Z,100.00
2022-10-18T23:48:25.467Z,100.00
2022-10-18T23:51:31.211Z,100.00
2022-10-18T23:54:36.869Z,100.00
2022-10-18T23:57:42.310Z,100.00
